sensor_id;sensor_type;location;lat;lon;timestamp;P1;durP1;ratioP1;P2;durP2;ratioP2
5042;SDS011;2540;50.928;6.856;2022-12-18T00:01:22;22.10;;;10.77;;
5042;SDS011;2540;50.928;6.856;2022-12-18T00:03:47;26.40;;;11.80;;
5042;SDS011;2540;50.928;6.856;2022-12-18T00:06:13;24.50;;;10.40;;
5042;SDS011;2540;50.928;6.856;2022-12-18T00:08:39;24.47;;;11.20;;
5042;SDS011;2540;50.928;6.856;2022-12-18T00:11:04;28.60;;;10.53;;
5042;SDS011;2540;50.928;6.856;2022-12-18T00:13:30;25.03;;;11.50;;
5042;SDS011;2540;50.928;6.856;2022-12-18T00:16:00;21.50;;;10.60;;
5042;SDS011;2540;50.928;6.856;2022-12-18T00:18:25;25.30;;;10.33;;
5042;SDS011;2540;50.928;6.856;2022-12-18T00:20:51;32.13;;;11.23;;
5042;SDS011;2540;50.928;6.856;2022-12-18T00:23:16;25.47;;;11.80;;
5042;SDS011;2540;50.928;6.856;2022-12-18T00:25:41;25.57;;;11.30;;
5042;SDS011;2540;50.928;6.856;2022-12-18T00:28:06;34.23;;;11.37;;
5042;SDS011;2540;50.928;6.856;2022-12-18T00:30:32;22.37;;;11.07;;
5042;SDS011;2540;50.928;6.856;2022-12-18T00:32:57;29.80;;;11.93;;
5042;SDS011;2540;50.928;6.856;2022-12-18T00:35:22;28.83;;;11.17;;
5042;SDS011;2540;50.928;6.856;2022-12-18T00:37:47;30.47;;;11.00;;
5042;SDS011;2540;50.928;6.856;2022-12-18T00:40:13;25.13;;;10.87;;
5042;SDS011;2540;50.928;6.856;2022-12-18T00:42:38;27.70;;;11.80;;
5042;SDS011;2540;50.928;6.856;2022-12-18T00:45:25;27.90;;;12.20;;
5042;SDS011;2540;50.928;6.856;2022-12-18T00:47:50;27.73;;;11.60;;
5042;SDS011;2540;50.928;6.856;2022-12-18T00:50:16;23.97;;;11.60;;
5042;SDS011;2540;50.928;6.856;2022-12-18T00:52:41;23.80;;;10.40;;
5042;SDS011;2540;50.928;6.856;2022-12-18T00:55:07;25.07;;;10.53;;
5042;SDS011;2540;50.928;6.856;2022-12-18T00:57:32;26.60;;;12.37;;
5042;SDS011;2540;50.928;6.856;2022-12-18T00:59:58;25.97;;;11.03;;
5042;SDS011;2540;50.928;6.856;2022-12-18T01:02:23;25.43;;;11.33;;
5042;SDS011;2540;50.928;6.856;2022-12-18T01:04:48;23.67;;;10.50;;
5042;SDS011;2540;50.928;6.856;2022-12-18T01:07:13;25.27;;;11.47;;
5042;SDS011;2540;50.928;6.856;2022-12-18T01:09:38;28.07;;;11.30;;
5042;SDS011;2540;50.928;6.856;2022-12-18T01:12:04;27.17;;;10.93;;
5042;SDS011;2540;50.928;6.856;2022-12-18T01:14:29;27.03;;;11.07;;
5042;SDS011;2540;50.928;6.856;2022-12-18T01:16:54;26.53;;;11.20;;
5042;SDS011;2540;50.928;6.856;2022-12-18T01:19:19;23.10;;;10.77;;
5042;SDS011;2540;50.928;6.856;2022-12-18T01:21:44;29.87;;;13.20;;
5042;SDS011;2540;50.928;6.856;2022-12-18T01:24:10;27.80;;;11.50;;
5042;SDS011;2540;50.928;6.856;2022-12-18T01:26:36;22.70;;;10.83;;
5042;SDS011;2540;50.928;6.856;2022-12-18T01:29:01;20.83;;;10.93;;
5042;SDS011;2540;50.928;6.856;2022-12-18T01:31:27;32.43;;;12.43;;
5042;SDS011;2540;50.928;6.856;2022-12-18T01:33:53;26.53;;;10.40;;
5042;SDS011;2540;50.928;6.856;2022-12-18T01:36:19;26.80;;;10.70;;
5042;SDS011;2540;50.928;6.856;2022-12-18T01:38:45;26.57;;;11.03;;
5042;SDS011;2540;50.928;6.856;2022-12-18T01:41:11;24.87;;;11.57;;
5042;SDS011;2540;50.928;6.856;2022-12-18T01:43:55;26.00;;;11.23;;
5042;SDS011;2540;50.928;6.856;2022-12-18T01:46:25;25.60;;;10.93;;
5042;SDS011;2540;50.928;6.856;2022-12-18T01:48:58;37.97;;;13.37;;
5042;SDS011;2540;50.928;6.856;2022-12-18T01:51:24;26.20;;;12.13;;
5042;SDS011;2540;50.928;6.856;2022-12-18T01:53:50;31.67;;;13.43;;
5042;SDS011;2540;50.928;6.856;2022-12-18T01:56:16;22.33;;;10.53;;
5042;SDS011;2540;50.928;6.856;2022-12-18T01:58:47;29.23;;;11.30;;
5042;SDS011;2540;50.928;6.856;2022-12-18T02:01:14;25.77;;;11.43;;
5042;SDS011;2540;50.928;6.856;2022-12-18T02:03:42;28.93;;;12.10;;
5042;SDS011;2540;50.928;6.856;2022-12-18T02:11:05;30.03;;;12.97;;
5042;SDS011;2540;50.928;6.856;2022-12-18T02:16:38;41.93;;;12.57;;
5042;SDS011;2540;50.928;6.856;2022-12-18T02:19:16;33.90;;;13.80;;
5042;SDS011;2540;50.928;6.856;2022-12-18T02:26:48;23.88;;;12.20;;
5042;SDS011;2540;50.928;6.856;2022-12-18T02:29:19;31.33;;;13.03;;
5042;SDS011;2540;50.928;6.856;2022-12-18T02:31:51;28.48;;;11.15;;
5042;SDS011;2540;50.928;6.856;2022-12-18T02:34:17;28.70;;;12.37;;
5042;SDS011;2540;50.928;6.856;2022-12-18T02:36:43;28.57;;;12.47;;
5042;SDS011;2540;50.928;6.856;2022-12-18T02:39:10;23.83;;;11.17;;
5042;SDS011;2540;50.928;6.856;2022-12-18T02:41:36;29.27;;;11.87;;
5042;SDS011;2540;50.928;6.856;2022-12-18T02:44:06;19.50;;;10.07;;
5042;SDS011;2540;50.928;6.856;2022-12-18T02:49:11;29.03;;;11.70;;
5042;SDS011;2540;50.928;6.856;2022-12-18T02:51:53;24.87;;;10.50;;
5042;SDS011;2540;50.928;6.856;2022-12-18T02:57:34;29.63;;;10.80;;
5042;SDS011;2540;50.928;6.856;2022-12-18T03:00:06;29.90;;;12.50;;
5042;SDS011;2540;50.928;6.856;2022-12-18T03:02:41;27.60;;;11.80;;
5042;SDS011;2540;50.928;6.856;2022-12-18T03:05:12;27.40;;;11.07;;
5042;SDS011;2540;50.928;6.856;2022-12-18T03:07:42;23.17;;;10.70;;
5042;SDS011;2540;50.928;6.856;2022-12-18T03:10:08;25.23;;;10.77;;
5042;SDS011;2540;50.928;6.856;2022-12-18T03:12:37;24.23;;;10.57;;
5042;SDS011;2540;50.928;6.856;2022-12-18T03:17:30;26.50;;;11.60;;
5042;SDS011;2540;50.928;6.856;2022-12-18T03:19:57;23.00;;;11.03;;
5042;SDS011;2540;50.928;6.856;2022-12-18T03:22:23;24.87;;;10.73;;
5042;SDS011;2540;50.928;6.856;2022-12-18T03:24:49;22.60;;;10.43;;
5042;SDS011;2540;50.928;6.856;2022-12-18T03:27:17;26.42;;;11.55;;
5042;SDS011;2540;50.928;6.856;2022-12-18T03:29:44;22.37;;;10.97;;
5042;SDS011;2540;50.928;6.856;2022-12-18T03:32:11;28.73;;;10.90;;
5042;SDS011;2540;50.928;6.856;2022-12-18T03:34:40;29.30;;;11.97;;
5042;SDS011;2540;50.928;6.856;2022-12-18T03:37:06;24.98;;;10.20;;
5042;SDS011;2540;50.928;6.856;2022-12-18T03:39:33;26.07;;;11.13;;
5042;SDS011;2540;50.928;6.856;2022-12-18T03:42:01;24.57;;;11.70;;
5042;SDS011;2540;50.928;6.856;2022-12-18T03:44:31;31.17;;;11.67;;
5042;SDS011;2540;50.928;6.856;2022-12-18T03:49:35;25.83;;;11.80;;
5042;SDS011;2540;50.928;6.856;2022-12-18T03:52:03;26.08;;;10.85;;
5042;SDS011;2540;50.928;6.856;2022-12-18T03:54:29;26.40;;;11.80;;
5042;SDS011;2540;50.928;6.856;2022-12-18T03:57:06;25.17;;;11.83;;
5042;SDS011;2540;50.928;6.856;2022-12-18T03:59:32;29.07;;;12.80;;
5042;SDS011;2540;50.928;6.856;2022-12-18T04:01:58;29.13;;;11.50;;
5042;SDS011;2540;50.928;6.856;2022-12-18T04:04:24;32.20;;;11.87;;
5042;SDS011;2540;50.928;6.856;2022-12-18T04:06:50;28.25;;;11.55;;
5042;SDS011;2540;50.928;6.856;2022-12-18T04:09:16;26.60;;;11.50;;
5042;SDS011;2540;50.928;6.856;2022-12-18T04:11:41;28.13;;;12.17;;
5042;SDS011;2540;50.928;6.856;2022-12-18T04:14:08;25.87;;;12.10;;
5042;SDS011;2540;50.928;6.856;2022-12-18T04:16:34;31.07;;;12.30;;
5042;SDS011;2540;50.928;6.856;2022-12-18T04:18:59;23.43;;;11.10;;
5042;SDS011;2540;50.928;6.856;2022-12-18T04:21:24;32.90;;;12.50;;
5042;SDS011;2540;50.928;6.856;2022-12-18T04:23:49;30.20;;;12.60;;
5042;SDS011;2540;50.928;6.856;2022-12-18T04:26:14;29.33;;;13.27;;
5042;SDS011;2540;50.928;6.856;2022-12-18T04:28:40;31.57;;;13.07;;
5042;SDS011;2540;50.928;6.856;2022-12-18T04:31:05;28.33;;;11.33;;
5042;SDS011;2540;50.928;6.856;2022-12-18T04:33:30;30.13;;;12.37;;
5042;SDS011;2540;50.928;6.856;2022-12-18T04:35:55;29.90;;;12.30;;
5042;SDS011;2540;50.928;6.856;2022-12-18T04:38:20;27.17;;;11.43;;
5042;SDS011;2540;50.928;6.856;2022-12-18T04:40:46;25.00;;;10.83;;
5042;SDS011;2540;50.928;6.856;2022-12-18T04:43:11;29.63;;;12.50;;
5042;SDS011;2540;50.928;6.856;2022-12-18T04:45:36;27.23;;;12.33;;
5042;SDS011;2540;50.928;6.856;2022-12-18T04:48:02;27.27;;;12.37;;
5042;SDS011;2540;50.928;6.856;2022-12-18T04:50:27;33.93;;;12.53;;
5042;SDS011;2540;50.928;6.856;2022-12-18T04:52:53;30.47;;;13.27;;
5042;SDS011;2540;50.928;6.856;2022-12-18T04:55:18;31.43;;;12.20;;
5042;SDS011;2540;50.928;6.856;2022-12-18T04:57:43;29.73;;;11.43;;
5042;SDS011;2540;50.928;6.856;2022-12-18T05:00:09;31.97;;;12.60;;
5042;SDS011;2540;50.928;6.856;2022-12-18T05:02:34;30.53;;;12.97;;
5042;SDS011;2540;50.928;6.856;2022-12-18T05:04:59;36.50;;;13.70;;
5042;SDS011;2540;50.928;6.856;2022-12-18T05:07:24;35.27;;;12.90;;
5042;SDS011;2540;50.928;6.856;2022-12-18T05:09:50;28.97;;;13.17;;
5042;SDS011;2540;50.928;6.856;2022-12-18T05:12:15;31.10;;;13.13;;
5042;SDS011;2540;50.928;6.856;2022-12-18T05:14:40;31.20;;;13.03;;
5042;SDS011;2540;50.928;6.856;2022-12-18T05:17:05;27.50;;;12.10;;
5042;SDS011;2540;50.928;6.856;2022-12-18T05:19:31;28.77;;;12.07;;
5042;SDS011;2540;50.928;6.856;2022-12-18T05:21:56;29.53;;;12.83;;
5042;SDS011;2540;50.928;6.856;2022-12-18T05:24:22;32.80;;;12.60;;
5042;SDS011;2540;50.928;6.856;2022-12-18T05:26:47;34.23;;;13.60;;
5042;SDS011;2540;50.928;6.856;2022-12-18T05:29:12;29.57;;;12.83;;
5042;SDS011;2540;50.928;6.856;2022-12-18T05:31:38;27.43;;;12.57;;
5042;SDS011;2540;50.928;6.856;2022-12-18T05:34:03;30.33;;;12.40;;
5042;SDS011;2540;50.928;6.856;2022-12-18T05:36:28;24.90;;;12.23;;
5042;SDS011;2540;50.928;6.856;2022-12-18T05:38:53;25.17;;;11.70;;
5042;SDS011;2540;50.928;6.856;2022-12-18T05:41:19;29.40;;;13.83;;
5042;SDS011;2540;50.928;6.856;2022-12-18T05:43:44;30.60;;;12.50;;
5042;SDS011;2540;50.928;6.856;2022-12-18T05:46:12;33.00;;;13.67;;
5042;SDS011;2540;50.928;6.856;2022-12-18T05:48:38;29.50;;;13.55;;
5042;SDS011;2540;50.928;6.856;2022-12-18T05:51:05;32.17;;;13.13;;
5042;SDS011;2540;50.928;6.856;2022-12-18T05:53:31;25.58;;;11.88;;
5042;SDS011;2540;50.928;6.856;2022-12-18T05:55:59;40.20;;;13.53;;
5042;SDS011;2540;50.928;6.856;2022-12-18T05:58:24;25.73;;;12.70;;
5042;SDS011;2540;50.928;6.856;2022-12-18T06:00:50;23.77;;;11.47;;
5042;SDS011;2540;50.928;6.856;2022-12-18T06:03:15;33.67;;;13.63;;
5042;SDS011;2540;50.928;6.856;2022-12-18T06:05:41;35.47;;;13.20;;
5042;SDS011;2540;50.928;6.856;2022-12-18T06:08:07;33.38;;;12.43;;
5042;SDS011;2540;50.928;6.856;2022-12-18T06:10:32;27.20;;;12.20;;
5042;SDS011;2540;50.928;6.856;2022-12-18T06:12:58;31.27;;;13.17;;
5042;SDS011;2540;50.928;6.856;2022-12-18T06:15:23;28.63;;;12.97;;
5042;SDS011;2540;50.928;6.856;2022-12-18T06:17:48;35.63;;;14.60;;
5042;SDS011;2540;50.928;6.856;2022-12-18T06:20:13;32.67;;;13.30;;
5042;SDS011;2540;50.928;6.856;2022-12-18T06:22:39;34.47;;;14.00;;
5042;SDS011;2540;50.928;6.856;2022-12-18T06:25:04;35.43;;;13.77;;
5042;SDS011;2540;50.928;6.856;2022-12-18T06:27:30;37.63;;;14.67;;
5042;SDS011;2540;50.928;6.856;2022-12-18T06:29:56;33.03;;;13.57;;
5042;SDS011;2540;50.928;6.856;2022-12-18T06:32:21;33.43;;;12.50;;
5042;SDS011;2540;50.928;6.856;2022-12-18T06:34:46;29.07;;;12.87;;
5042;SDS011;2540;50.928;6.856;2022-12-18T06:37:11;30.57;;;12.80;;
5042;SDS011;2540;50.928;6.856;2022-12-18T06:39:36;30.73;;;14.13;;
5042;SDS011;2540;50.928;6.856;2022-12-18T06:42:02;30.10;;;12.13;;
5042;SDS011;2540;50.928;6.856;2022-12-18T06:44:27;31.53;;;13.53;;
5042;SDS011;2540;50.928;6.856;2022-12-18T06:46:53;32.20;;;13.93;;
5042;SDS011;2540;50.928;6.856;2022-12-18T06:49:18;32.30;;;13.40;;
5042;SDS011;2540;50.928;6.856;2022-12-18T06:51:43;33.83;;;14.13;;
5042;SDS011;2540;50.928;6.856;2022-12-18T06:54:08;32.30;;;13.77;;
5042;SDS011;2540;50.928;6.856;2022-12-18T06:56:33;29.83;;;13.20;;
5042;SDS011;2540;50.928;6.856;2022-12-18T06:58:58;25.97;;;12.10;;
5042;SDS011;2540;50.928;6.856;2022-12-18T07:01:24;40.90;;;14.83;;
5042;SDS011;2540;50.928;6.856;2022-12-18T07:03:53;29.57;;;14.17;;
5042;SDS011;2540;50.928;6.856;2022-12-18T07:06:19;31.88;;;13.98;;
5042;SDS011;2540;50.928;6.856;2022-12-18T07:08:45;25.57;;;11.67;;
5042;SDS011;2540;50.928;6.856;2022-12-18T07:11:11;34.70;;;15.07;;
5042;SDS011;2540;50.928;6.856;2022-12-18T07:13:37;31.83;;;13.17;;
5042;SDS011;2540;50.928;6.856;2022-12-18T07:16:09;32.67;;;13.43;;
5042;SDS011;2540;50.928;6.856;2022-12-18T07:18:34;29.23;;;13.43;;
5042;SDS011;2540;50.928;6.856;2022-12-18T07:21:07;26.23;;;11.57;;
5042;SDS011;2540;50.928;6.856;2022-12-18T07:23:33;34.40;;;13.55;;
5042;SDS011;2540;50.928;6.856;2022-12-18T07:26:06;30.67;;;12.43;;
5042;SDS011;2540;50.928;6.856;2022-12-18T07:28:31;27.27;;;11.43;;
5042;SDS011;2540;50.928;6.856;2022-12-18T07:30:57;29.50;;;12.80;;
5042;SDS011;2540;50.928;6.856;2022-12-18T07:33:22;26.40;;;11.40;;
5042;SDS011;2540;50.928;6.856;2022-12-18T07:35:47;24.23;;;11.80;;
5042;SDS011;2540;50.928;6.856;2022-12-18T07:38:12;28.00;;;12.10;;
5042;SDS011;2540;50.928;6.856;2022-12-18T07:40:38;30.23;;;12.17;;
5042;SDS011;2540;50.928;6.856;2022-12-18T07:43:03;25.17;;;11.90;;
5042;SDS011;2540;50.928;6.856;2022-12-18T07:45:28;24.17;;;11.07;;
5042;SDS011;2540;50.928;6.856;2022-12-18T07:47:54;28.27;;;12.30;;
5042;SDS011;2540;50.928;6.856;2022-12-18T07:50:19;24.23;;;11.10;;
5042;SDS011;2540;50.928;6.856;2022-12-18T07:52:44;26.57;;;11.97;;
5042;SDS011;2540;50.928;6.856;2022-12-18T07:55:09;29.13;;;12.73;;
5042;SDS011;2540;50.928;6.856;2022-12-18T07:57:34;28.70;;;12.57;;
5042;SDS011;2540;50.928;6.856;2022-12-18T08:00:00;32.97;;;12.40;;
5042;SDS011;2540;50.928;6.856;2022-12-18T08:02:25;26.90;;;12.03;;
5042;SDS011;2540;50.928;6.856;2022-12-18T08:04:50;27.47;;;12.07;;
5042;SDS011;2540;50.928;6.856;2022-12-18T08:07:15;31.10;;;13.00;;
5042;SDS011;2540;50.928;6.856;2022-12-18T08:09:41;26.23;;;12.60;;
5042;SDS011;2540;50.928;6.856;2022-12-18T08:12:06;31.10;;;13.90;;
5042;SDS011;2540;50.928;6.856;2022-12-18T08:14:31;28.80;;;13.13;;
5042;SDS011;2540;50.928;6.856;2022-12-18T08:16:56;30.37;;;12.83;;
5042;SDS011;2540;50.928;6.856;2022-12-18T08:19:21;33.13;;;11.90;;
5042;SDS011;2540;50.928;6.856;2022-12-18T08:21:47;27.80;;;12.10;;
5042;SDS011;2540;50.928;6.856;2022-12-18T08:24:12;25.10;;;11.23;;
5042;SDS011;2540;50.928;6.856;2022-12-18T08:26:37;26.17;;;11.83;;
5042;SDS011;2540;50.928;6.856;2022-12-18T08:29:02;25.83;;;12.27;;
5042;SDS011;2540;50.928;6.856;2022-12-18T08:31:28;34.43;;;13.43;;
5042;SDS011;2540;50.928;6.856;2022-12-18T08:33:54;28.13;;;12.57;;
5042;SDS011;2540;50.928;6.856;2022-12-18T08:36:19;28.53;;;11.90;;
5042;SDS011;2540;50.928;6.856;2022-12-18T08:38:45;32.30;;;12.97;;
5042;SDS011;2540;50.928;6.856;2022-12-18T08:41:11;26.90;;;11.63;;
5042;SDS011;2540;50.928;6.856;2022-12-18T08:43:37;25.43;;;11.10;;
5042;SDS011;2540;50.928;6.856;2022-12-18T08:46:21;31.50;;;13.93;;
5042;SDS011;2540;50.928;6.856;2022-12-18T08:48:47;26.93;;;11.83;;
5042;SDS011;2540;50.928;6.856;2022-12-18T08:51:15;27.70;;;11.97;;
5042;SDS011;2540;50.928;6.856;2022-12-18T08:53:41;28.40;;;13.00;;
5042;SDS011;2540;50.928;6.856;2022-12-18T08:56:07;29.13;;;12.80;;
5042;SDS011;2540;50.928;6.856;2022-12-18T08:58:32;25.73;;;11.90;;
5042;SDS011;2540;50.928;6.856;2022-12-18T09:01:04;29.80;;;12.57;;
5042;SDS011;2540;50.928;6.856;2022-12-18T09:03:30;27.13;;;12.87;;
5042;SDS011;2540;50.928;6.856;2022-12-18T09:05:55;28.83;;;13.00;;
5042;SDS011;2540;50.928;6.856;2022-12-18T09:08:20;25.90;;;12.37;;
5042;SDS011;2540;50.928;6.856;2022-12-18T09:10:46;28.73;;;12.23;;
5042;SDS011;2540;50.928;6.856;2022-12-18T09:13:11;26.77;;;11.83;;
5042;SDS011;2540;50.928;6.856;2022-12-18T09:15:44;29.07;;;13.37;;
5042;SDS011;2540;50.928;6.856;2022-12-18T09:18:10;24.20;;;11.87;;
5042;SDS011;2540;50.928;6.856;2022-12-18T09:20:36;29.53;;;12.23;;
5042;SDS011;2540;50.928;6.856;2022-12-18T09:23:02;31.63;;;12.87;;
5042;SDS011;2540;50.928;6.856;2022-12-18T09:25:28;28.50;;;12.00;;
5042;SDS011;2540;50.928;6.856;2022-12-18T09:27:57;28.03;;;12.93;;
5042;SDS011;2540;50.928;6.856;2022-12-18T09:30:23;26.30;;;11.70;;
5042;SDS011;2540;50.928;6.856;2022-12-18T09:32:48;37.70;;;14.00;;
5042;SDS011;2540;50.928;6.856;2022-12-18T09:35:13;29.23;;;12.63;;
5042;SDS011;2540;50.928;6.856;2022-12-18T09:37:38;33.10;;;14.70;;
5042;SDS011;2540;50.928;6.856;2022-12-18T09:40:03;27.23;;;13.00;;
5042;SDS011;2540;50.928;6.856;2022-12-18T09:42:29;30.63;;;14.40;;
5042;SDS011;2540;50.928;6.856;2022-12-18T09:44:54;32.73;;;12.23;;
5042;SDS011;2540;50.928;6.856;2022-12-18T09:49:50;34.40;;;14.00;;
5042;SDS011;2540;50.928;6.856;2022-12-18T09:54:42;25.17;;;12.83;;
5042;SDS011;2540;50.928;6.856;2022-12-18T09:57:12;29.87;;;11.67;;
5042;SDS011;2540;50.928;6.856;2022-12-18T09:59:38;32.07;;;13.57;;
5042;SDS011;2540;50.928;6.856;2022-12-18T10:02:21;29.03;;;13.07;;
5042;SDS011;2540;50.928;6.856;2022-12-18T10:04:56;28.83;;;12.93;;
5042;SDS011;2540;50.928;6.856;2022-12-18T10:07:27;30.07;;;12.17;;
5042;SDS011;2540;50.928;6.856;2022-12-18T10:09:58;28.37;;;12.13;;
5042;SDS011;2540;50.928;6.856;2022-12-18T10:12:32;25.17;;;11.00;;
5042;SDS011;2540;50.928;6.856;2022-12-18T10:15:20;26.50;;;12.70;;
5042;SDS011;2540;50.928;6.856;2022-12-18T10:17:51;27.87;;;12.20;;
5042;SDS011;2540;50.928;6.856;2022-12-18T10:22:46;26.57;;;12.37;;
5042;SDS011;2540;50.928;6.856;2022-12-18T10:25:15;24.53;;;12.40;;
5042;SDS011;2540;50.928;6.856;2022-12-18T10:27:42;28.13;;;13.60;;
5042;SDS011;2540;50.928;6.856;2022-12-18T10:30:14;26.73;;;11.87;;
5042;SDS011;2540;50.928;6.856;2022-12-18T10:32:40;22.67;;;12.30;;
5042;SDS011;2540;50.928;6.856;2022-12-18T10:35:08;25.00;;;12.07;;
5042;SDS011;2540;50.928;6.856;2022-12-18T10:37:36;22.13;;;11.67;;
5042;SDS011;2540;50.928;6.856;2022-12-18T10:42:33;24.93;;;13.30;;
5042;SDS011;2540;50.928;6.856;2022-12-18T10:45:16;26.33;;;13.17;;
5042;SDS011;2540;50.928;6.856;2022-12-18T10:47:45;25.93;;;12.60;;
5042;SDS011;2540;50.928;6.856;2022-12-18T10:52:55;28.20;;;12.30;;
5042;SDS011;2540;50.928;6.856;2022-12-18T10:55:22;26.10;;;13.10;;
5042;SDS011;2540;50.928;6.856;2022-12-18T10:57:47;26.57;;;12.00;;
5042;SDS011;2540;50.928;6.856;2022-12-18T11:02:50;25.53;;;12.13;;
5042;SDS011;2540;50.928;6.856;2022-12-18T11:05:23;25.90;;;11.73;;
5042;SDS011;2540;50.928;6.856;2022-12-18T11:07:49;32.33;;;12.40;;
5042;SDS011;2540;50.928;6.856;2022-12-18T11:10:16;24.43;;;12.33;;
5042;SDS011;2540;50.928;6.856;2022-12-18T11:12:42;33.03;;;12.87;;
5042;SDS011;2540;50.928;6.856;2022-12-18T11:15:13;30.43;;;13.90;;
5042;SDS011;2540;50.928;6.856;2022-12-18T11:17:40;28.57;;;13.67;;
5042;SDS011;2540;50.928;6.856;2022-12-18T11:20:05;23.13;;;12.97;;
5042;SDS011;2540;50.928;6.856;2022-12-18T11:22:34;27.23;;;13.00;;
5042;SDS011;2540;50.928;6.856;2022-12-18T11:27:26;29.10;;;14.17;;
5042;SDS011;2540;50.928;6.856;2022-12-18T11:29:53;21.97;;;12.03;;
5042;SDS011;2540;50.928;6.856;2022-12-18T11:32:33;27.20;;;12.97;;
5042;SDS011;2540;50.928;6.856;2022-12-18T11:35:11;31.13;;;13.63;;
5042;SDS011;2540;50.928;6.856;2022-12-18T11:37:39;29.17;;;13.13;;
5042;SDS011;2540;50.928;6.856;2022-12-18T11:47:42;27.50;;;12.40;;
5042;SDS011;2540;50.928;6.856;2022-12-18T11:50:13;29.00;;;13.73;;
5042;SDS011;2540;50.928;6.856;2022-12-18T11:52:40;28.53;;;13.53;;
5042;SDS011;2540;50.928;6.856;2022-12-18T11:55:11;24.90;;;13.20;;
5042;SDS011;2540;50.928;6.856;2022-12-18T12:00:11;31.90;;;13.07;;
5042;SDS011;2540;50.928;6.856;2022-12-18T12:03:02;28.17;;;13.60;;
5042;SDS011;2540;50.928;6.856;2022-12-18T12:08:06;27.03;;;13.77;;
5042;SDS011;2540;50.928;6.856;2022-12-18T12:15:50;28.13;;;14.03;;
5042;SDS011;2540;50.928;6.856;2022-12-18T12:23:36;32.70;;;13.73;;
5042;SDS011;2540;50.928;6.856;2022-12-18T12:26:05;26.50;;;12.80;;
5042;SDS011;2540;50.928;6.856;2022-12-18T12:31:07;33.53;;;13.40;;
5042;SDS011;2540;50.928;6.856;2022-12-18T12:33:46;27.07;;;14.80;;
5042;SDS011;2540;50.928;6.856;2022-12-18T12:38:42;32.00;;;14.40;;
5042;SDS011;2540;50.928;6.856;2022-12-18T12:41:09;29.90;;;14.33;;
5042;SDS011;2540;50.928;6.856;2022-12-18T12:43:57;32.50;;;16.00;;
5042;SDS011;2540;50.928;6.856;2022-12-18T12:46:23;27.60;;;13.67;;
5042;SDS011;2540;50.928;6.856;2022-12-18T12:48:50;28.60;;;14.80;;
5042;SDS011;2540;50.928;6.856;2022-12-18T12:51:24;40.43;;;16.43;;
5042;SDS011;2540;50.928;6.856;2022-12-18T12:53:50;27.37;;;14.40;;
5042;SDS011;2540;50.928;6.856;2022-12-18T12:56:17;28.10;;;14.70;;
5042;SDS011;2540;50.928;6.856;2022-12-18T12:58:52;28.20;;;13.80;;
5042;SDS011;2540;50.928;6.856;2022-12-18T13:06:38;30.47;;;14.83;;
5042;SDS011;2540;50.928;6.856;2022-12-18T13:09:05;34.60;;;16.48;;
5042;SDS011;2540;50.928;6.856;2022-12-18T13:11:38;33.73;;;15.13;;
5042;SDS011;2540;50.928;6.856;2022-12-18T13:14:38;33.60;;;15.43;;
5042;SDS011;2540;50.928;6.856;2022-12-18T13:19:50;30.63;;;15.30;;
5042;SDS011;2540;50.928;6.856;2022-12-18T13:22:22;29.30;;;15.20;;
5042;SDS011;2540;50.928;6.856;2022-12-18T13:24:48;30.00;;;15.30;;
5042;SDS011;2540;50.928;6.856;2022-12-18T13:29:58;32.30;;;15.67;;
5042;SDS011;2540;50.928;6.856;2022-12-18T13:32:26;29.23;;;14.37;;
5042;SDS011;2540;50.928;6.856;2022-12-18T13:37:39;29.10;;;15.60;;
5042;SDS011;2540;50.928;6.856;2022-12-18T13:42:51;35.60;;;16.67;;
5042;SDS011;2540;50.928;6.856;2022-12-18T13:45:36;31.10;;;15.20;;
5042;SDS011;2540;50.928;6.856;2022-12-18T13:48:03;34.00;;;15.17;;
5042;SDS011;2540;50.928;6.856;2022-12-18T13:50:28;31.50;;;16.40;;
5042;SDS011;2540;50.928;6.856;2022-12-18T13:52:53;31.00;;;15.27;;
5042;SDS011;2540;50.928;6.856;2022-12-18T13:55:19;36.43;;;17.07;;
5042;SDS011;2540;50.928;6.856;2022-12-18T13:57:45;35.00;;;16.70;;
5042;SDS011;2540;50.928;6.856;2022-12-18T14:00:29;36.97;;;17.80;;
5042;SDS011;2540;50.928;6.856;2022-12-18T14:02:57;33.03;;;16.53;;
5042;SDS011;2540;50.928;6.856;2022-12-18T14:05:27;36.07;;;16.40;;
5042;SDS011;2540;50.928;6.856;2022-12-18T14:07:53;29.70;;;14.50;;
5042;SDS011;2540;50.928;6.856;2022-12-18T14:10:19;30.07;;;14.87;;
5042;SDS011;2540;50.928;6.856;2022-12-18T14:12:47;30.50;;;15.73;;
5042;SDS011;2540;50.928;6.856;2022-12-18T14:18:00;35.23;;;16.20;;
5042;SDS011;2540;50.928;6.856;2022-12-18T14:20:26;30.40;;;16.17;;
5042;SDS011;2540;50.928;6.856;2022-12-18T14:22:52;32.93;;;16.47;;
5042;SDS011;2540;50.928;6.856;2022-12-18T14:27:44;34.30;;;17.03;;
5042;SDS011;2540;50.928;6.856;2022-12-18T14:30:25;34.30;;;16.93;;
5042;SDS011;2540;50.928;6.856;2022-12-18T14:33:01;31.17;;;15.60;;
5042;SDS011;2540;50.928;6.856;2022-12-18T14:35:26;31.97;;;16.70;;
5042;SDS011;2540;50.928;6.856;2022-12-18T14:37:51;34.03;;;16.57;;
5042;SDS011;2540;50.928;6.856;2022-12-18T14:40:17;30.60;;;15.70;;
5042;SDS011;2540;50.928;6.856;2022-12-18T14:42:42;39.63;;;17.30;;
5042;SDS011;2540;50.928;6.856;2022-12-18T14:47:51;32.87;;;16.53;;
5042;SDS011;2540;50.928;6.856;2022-12-18T14:50:16;31.90;;;15.93;;
5042;SDS011;2540;50.928;6.856;2022-12-18T14:52:41;36.47;;;16.83;;
5042;SDS011;2540;50.928;6.856;2022-12-18T14:55:13;33.50;;;16.40;;
5042;SDS011;2540;50.928;6.856;2022-12-18T14:57:39;33.93;;;17.57;;
5042;SDS011;2540;50.928;6.856;2022-12-18T15:00:17;34.43;;;16.47;;
5042;SDS011;2540;50.928;6.856;2022-12-18T15:02:44;33.13;;;16.20;;
5042;SDS011;2540;50.928;6.856;2022-12-18T15:07:51;28.70;;;14.60;;
5042;SDS011;2540;50.928;6.856;2022-12-18T15:10:18;32.90;;;16.27;;
5042;SDS011;2540;50.928;6.856;2022-12-18T15:17:57;34.10;;;17.23;;
5042;SDS011;2540;50.928;6.856;2022-12-18T15:20:23;38.60;;;17.80;;
5042;SDS011;2540;50.928;6.856;2022-12-18T15:22:48;36.63;;;17.70;;
5042;SDS011;2540;50.928;6.856;2022-12-18T15:25:27;36.43;;;17.50;;
5042;SDS011;2540;50.928;6.856;2022-12-18T15:27:56;37.23;;;17.23;;
5042;SDS011;2540;50.928;6.856;2022-12-18T15:30:22;40.23;;;18.13;;
5042;SDS011;2540;50.928;6.856;2022-12-18T15:32:48;35.73;;;17.10;;
5042;SDS011;2540;50.928;6.856;2022-12-18T15:35:21;34.50;;;15.47;;
5042;SDS011;2540;50.928;6.856;2022-12-18T15:37:47;37.80;;;15.83;;
5042;SDS011;2540;50.928;6.856;2022-12-18T15:40:13;33.93;;;16.97;;
5042;SDS011;2540;50.928;6.856;2022-12-18T15:42:39;36.43;;;17.60;;
5042;SDS011;2540;50.928;6.856;2022-12-18T15:45:23;37.07;;;18.47;;
5042;SDS011;2540;50.928;6.856;2022-12-18T15:47:48;39.20;;;17.77;;
5042;SDS011;2540;50.928;6.856;2022-12-18T15:50:13;41.80;;;18.17;;
5042;SDS011;2540;50.928;6.856;2022-12-18T15:52:42;38.60;;;18.77;;
5042;SDS011;2540;50.928;6.856;2022-12-18T15:55:14;34.40;;;18.30;;
5042;SDS011;2540;50.928;6.856;2022-12-18T15:57:58;37.70;;;17.20;;
5042;SDS011;2540;50.928;6.856;2022-12-18T16:00:24;35.53;;;17.37;;
5042;SDS011;2540;50.928;6.856;2022-12-18T16:02:49;41.23;;;17.40;;
5042;SDS011;2540;50.928;6.856;2022-12-18T16:05:15;34.60;;;18.10;;
5042;SDS011;2540;50.928;6.856;2022-12-18T16:07:42;37.43;;;17.50;;
5042;SDS011;2540;50.928;6.856;2022-12-18T16:10:07;43.87;;;18.53;;
5042;SDS011;2540;50.928;6.856;2022-12-18T16:12:32;39.47;;;18.40;;
5042;SDS011;2540;50.928;6.856;2022-12-18T16:14:57;40.17;;;17.27;;
5042;SDS011;2540;50.928;6.856;2022-12-18T16:17:23;35.73;;;16.43;;
5042;SDS011;2540;50.928;6.856;2022-12-18T16:19:48;35.30;;;16.27;;
5042;SDS011;2540;50.928;6.856;2022-12-18T16:22:17;37.33;;;18.10;;
5042;SDS011;2540;50.928;6.856;2022-12-18T16:24:44;35.57;;;17.90;;
5042;SDS011;2540;50.928;6.856;2022-12-18T16:27:09;39.53;;;19.90;;
5042;SDS011;2540;50.928;6.856;2022-12-18T16:29:34;41.03;;;18.23;;
5042;SDS011;2540;50.928;6.856;2022-12-18T16:31:59;35.13;;;16.93;;